createdAt,value
2019-04-22T00:02:17.099Z,9.33
2019-04-22T00:05:01.167Z,9.60
2019-04-22T00:07:53.315Z,13.65
2019-04-22T00:10:26.506Z,11.80
2019-04-22T00:12:59.861Z,14.75
2019-04-22T00:15:27.343Z,10.88
2019-04-22T00:18:07.452Z,14.53
2019-04-22T00:20:42.552Z,9.60
2019-04-22T00:23:11.440Z,12.35
2019-04-22T00:25:50.678Z,10.38
2019-04-22T00:28:24.524Z,12.33
2019-04-22T00:30:53.805Z,10.88
2019-04-22T00:33:31.297Z,9.30
2019-04-22T00:36:01.209Z,12.05
2019-04-22T00:38:38.660Z,11.63
2019-04-22T00:41:14.623Z,8.95
2019-04-22T00:43:48.077Z,9.15
2019-04-22T00:46:17.567Z,9.40
2019-04-22T00:49:30.470Z,10.45
2019-04-22T00:51:28.536Z,12.40
2019-04-22T00:54:03.294Z,11.33
2019-04-22T00:56:35.655Z,12.28
2019-04-22T00:59:11.471Z,15.03
2019-04-22T01:01:47.091Z,11.22
2019-04-22T01:04:21.045Z,13.25
2019-04-22T01:06:51.643Z,10.95
2019-04-22T01:09:25.011Z,11.57
2019-04-22T01:11:59.156Z,11.43
2019-04-22T01:14:35.636Z,12.78
2019-04-22T01:17:06.574Z,13.13
2019-04-22T01:19:54.511Z,13.03
2019-04-22T01:22:17.519Z,13.65
2019-04-22T01:24:51.538Z,16.67
2019-04-22T01:27:22.109Z,10.45
2019-04-22T01:29:48.954Z,9.55
2019-04-22T01:32:21.654Z,15.45
2019-04-22T01:35:03.526Z,13.68
2019-04-22T01:37:41.668Z,10.75
2019-04-22T01:42:56.034Z,11.93
2019-04-22T01:48:05.392Z,11.10
2019-04-22T01:50:37.065Z,8.45
2019-04-22T01:53:13.347Z,7.62
2019-04-22T01:55:46.962Z,9.33
2019-04-22T01:58:11.178Z,10.32
2019-04-22T02:00:53.410Z,11.63
2019-04-22T02:03:33.316Z,12.85
2019-04-22T02:06:06.915Z,8.80
2019-04-22T02:08:53.275Z,10.60
2019-04-22T02:11:07.676Z,11.68
2019-04-22T02:13:44.717Z,8.08
2019-04-22T02:16:21.453Z,8.23
2019-04-22T02:18:53.116Z,6.85
2019-04-22T02:21:34.253Z,8.53
2019-04-22T02:24:18.031Z,9.90
2019-04-22T02:26:41.758Z,8.65
2019-04-22T02:29:08.675Z,11.03
2019-04-22T02:34:46.093Z,10.15
2019-04-22T02:37:18.826Z,13.95
2019-04-22T02:40:03.811Z,7.47
2019-04-22T02:42:52.223Z,9.48
2019-04-22T02:45:07.670Z,8.80
2019-04-22T02:48:06.677Z,8.55
2019-04-22T02:50:43.710Z,6.75
2019-04-22T02:53:01.964Z,10.90
2019-04-22T02:55:56.552Z,12.68
2019-04-22T02:58:38.925Z,9.75
2019-04-22T03:01:13.484Z,12.18
2019-04-22T03:04:24.636Z,8.10
2019-04-22T03:06:51.232Z,9.03
2019-04-22T03:09:40.264Z,10.38
2019-04-22T03:12:23.539Z,8.38
2019-04-22T03:15:00.017Z,11.00
2019-04-22T03:17:43.667Z,8.33
2019-04-22T03:20:33.925Z,8.53
2019-04-22T03:23:31.782Z,10.95
2019-04-22T03:28:54.887Z,10.72
2019-04-22T03:32:31.995Z,11.25
2019-04-22T03:38:00.360Z,13.62
2019-04-22T03:40:40.435Z,13.20
2019-04-22T03:43:30.773Z,10.75
2019-04-22T03:45:58.679Z,8.10
2019-04-22T03:49:02.250Z,8.78
2019-04-22T03:51:43.426Z,7.78
2019-04-22T03:54:29.729Z,8.83
2019-04-22T03:57:26.512Z,9.93
2019-04-22T04:03:00.974Z,8.93
2019-04-22T04:11:06.379Z,9.20
2019-04-22T04:14:05.447Z,12.23
2019-04-22T04:16:39.252Z,9.83
2019-04-22T04:19:27.823Z,11.12
2019-04-22T04:25:07.822Z,8.45
2019-04-22T04:27:53.594Z,8.80
2019-04-22T04:30:23.250Z,10.53
2019-04-22T04:33:01.506Z,7.35
2019-04-22T04:38:23.815Z,9.60
2019-04-22T04:43:16.336Z,7.97
2019-04-22T04:46:02.901Z,7.40
2019-04-22T04:48:32.626Z,9.73
2019-04-22T04:51:11.159Z,8.85
2019-04-22T04:53:31.939Z,12.58
2019-04-22T04:56:11.857Z,11.43
2019-04-22T05:01:23.168Z,10.60
2019-04-22T05:04:04.957Z,10.85
2019-04-22T05:06:21.684Z,10.48
2019-04-22T05:11:35.241Z,10.20
2019-04-22T05:14:05.516Z,13.28
2019-04-22T05:19:13.382Z,11.65
2019-04-22T05:21:40.516Z,8.93
2019-04-22T05:24:19.847Z,13.60
2019-04-22T05:26:53.814Z,11.28
2019-04-22T05:29:19.657Z,8.73
2019-04-22T05:34:35.078Z,14.68
2019-04-22T05:37:01.214Z,7.58
2019-04-22T05:39:37.050Z,8.85
2019-04-22T05:42:08.535Z,7.50
2019-04-22T05:44:43.475Z,12.20
2019-04-22T05:47:15.264Z,12.28
2019-04-22T05:49:48.357Z,10.55
2019-04-22T05:52:25.612Z,8.73
2019-04-22T05:55:05.366Z,8.13
2019-04-22T05:57:31.301Z,8.10
2019-04-22T06:00:18.336Z,12.03
2019-04-22T06:02:56.819Z,7.80
2019-04-22T06:05:16.881Z,13.30
2019-04-22T06:07:45.750Z,7.22
2019-04-22T06:10:26.102Z,7.22
2019-04-22T06:12:58.243Z,7.33
2019-04-22T06:15:34.499Z,7.10
2019-04-22T06:20:53.840Z,9.08
2019-04-22T06:23:34.660Z,8.98
2019-04-22T06:31:20.665Z,12.45
2019-04-22T06:33:48.358Z,8.65
2019-04-22T06:36:27.470Z,7.85
2019-04-22T06:39:05.161Z,6.70
2019-04-22T06:41:44.202Z,8.03
2019-04-22T06:52:01.187Z,10.65
2019-04-22T06:54:32.691Z,7.50
2019-04-22T06:57:20.762Z,8.65
2019-04-22T06:59:36.579Z,7.40
2019-04-22T07:02:16.404Z,9.95
2019-04-22T07:04:49.492Z,7.17
2019-04-22T07:07:24.133Z,9.15
2019-04-22T07:10:11.429Z,8.00
2019-04-22T07:12:34.747Z,9.60
2019-04-22T07:15:32.802Z,6.53
2019-04-22T07:17:49.130Z,7.67
2019-04-22T07:20:24.168Z,10.90
2019-04-22T07:22:51.265Z,7.78
2019-04-22T07:25:32.238Z,7.58
2019-04-22T07:28:17.617Z,9.80
2019-04-22T07:30:56.147Z,6.42
2019-04-22T07:36:00.608Z,6.62
2019-04-22T07:38:25.548Z,6.65
2019-04-22T07:40:51.854Z,8.95
2019-04-22T07:46:03.203Z,7.67
2019-04-22T07:48:37.625Z,8.55
2019-04-22T07:51:10.074Z,7.83
2019-04-22T07:53:39.207Z,7.35
2019-04-22T07:56:18.666Z,7.50
2019-04-22T07:58:51.841Z,8.63
2019-04-22T08:04:35.894Z,7.22
2019-04-22T08:06:46.448Z,8.33
2019-04-22T08:09:47.208Z,5.90
2019-04-22T08:13:07.365Z,5.70
2019-04-22T08:16:04.519Z,5.40
2019-04-22T08:19:10.571Z,7.10
2019-04-22T08:22:32.460Z,9.45
2019-04-22T08:28:28.889Z,5.05
2019-04-22T08:31:10.320Z,5.22
2019-04-22T08:34:19.551Z,9.80
2019-04-22T08:40:12.563Z,5.83
2019-04-22T08:43:20.225Z,8.13
2019-04-22T08:45:57.184Z,11.15
2019-04-22T08:48:42.452Z,7.10
2019-04-22T08:51:22.314Z,7.45
2019-04-22T08:56:58.279Z,6.10
2019-04-22T08:59:34.272Z,6.50
2019-04-22T09:02:06.325Z,10.28
2019-04-22T09:04:37.021Z,17.17
2019-04-22T09:07:20.303Z,5.25
2019-04-22T09:09:55.630Z,6.08
2019-04-22T09:12:49.607Z,6.90
2019-04-22T09:15:10.208Z,6.15
2019-04-22T09:17:47.836Z,6.95
2019-04-22T09:20:20.637Z,5.35
2019-04-22T09:23:04.540Z,5.42
2019-04-22T09:28:20.769Z,7.17
2019-04-22T09:36:13.003Z,6.58
2019-04-22T09:41:14.114Z,5.35
2019-04-22T09:43:47.123Z,5.08
2019-04-22T09:46:21.433Z,6.50
2019-04-22T09:48:59.030Z,5.47
2019-04-22T09:51:25.274Z,7.62
2019-04-22T09:54:08.882Z,7.80
2019-04-22T09:56:40.475Z,5.75
2019-04-22T09:59:07.540Z,5.67
2019-04-22T10:01:48.778Z,6.75
2019-04-22T10:04:14.188Z,6.12
2019-04-22T10:06:45.650Z,6.45
2019-04-22T10:09:40.544Z,5.33
2019-04-22T10:11:55.317Z,4.80
2019-04-22T10:14:39.679Z,5.80
2019-04-22T10:17:09.961Z,5.35
2019-04-22T10:19:41.142Z,8.00
2019-04-22T10:22:19.684Z,5.17
2019-04-22T10:24:55.410Z,6.67
2019-04-22T10:27:26.924Z,8.58
2019-04-22T10:30:15.137Z,6.90
2019-04-22T10:32:30.848Z,8.50
2019-04-22T10:35:04.400Z,7.60
2019-04-22T10:37:32.268Z,7.22
2019-04-22T10:40:09.326Z,5.72
2019-04-22T10:42:43.536Z,4.42
2019-04-22T10:45:16.521Z,5.62
2019-04-22T10:47:49.975Z,7.00
2019-04-22T10:50:31.465Z,5.10
2019-04-22T10:53:03.591Z,4.75
2019-04-22T10:55:37.196Z,7.33
2019-04-22T10:58:10.967Z,10.28
2019-04-22T11:00:45.253Z,5.70
2019-04-22T11:03:20.255Z,12.63
2019-04-22T11:05:54.202Z,6.22
2019-04-22T11:08:35.047Z,4.50
2019-04-22T11:11:18.015Z,5.70
2019-04-22T11:13:39.887Z,5.35
2019-04-22T11:16:13.945Z,5.72
2019-04-22T11:18:47.447Z,4.62
2019-04-22T11:21:19.969Z,8.08
2019-04-22T11:23:52.535Z,4.58
2019-04-22T11:26:25.998Z,5.70
2019-04-22T11:28:59.349Z,5.62
2019-04-22T11:31:32.446Z,4.95
2019-04-22T11:34:06.154Z,5.72
2019-04-22T11:36:40.881Z,8.98
2019-04-22T11:39:17.716Z,6.20
2019-04-22T11:41:54.028Z,4.42
2019-04-22T11:44:27.654Z,11.55
2019-04-22T11:47:01.411Z,8.33
2019-04-22T11:49:36.114Z,5.55
2019-04-22T11:52:10.857Z,9.68
2019-04-22T11:54:43.259Z,4.95
2019-04-22T11:57:16.973Z,5.70
2019-04-22T11:59:49.259Z,6.10
2019-04-22T12:02:25.421Z,5.80
2019-04-22T12:04:59.031Z,4.65
2019-04-22T12:07:34.518Z,6.67
2019-04-22T12:10:19.222Z,6.55
2019-04-22T12:12:39.740Z,5.25
2019-04-22T12:15:14.762Z,4.58
2019-04-22T12:17:47.023Z,4.15
2019-04-22T12:20:20.184Z,5.35
2019-04-22T12:22:53.472Z,5.55
2019-04-22T12:25:36.133Z,4.90
2019-04-22T12:28:01.434Z,8.00
2019-04-22T12:30:33.585Z,4.67
2019-04-22T12:33:09.261Z,7.08
2019-04-22T12:35:39.424Z,5.28
2019-04-22T12:38:14.310Z,4.25
2019-04-22T12:40:54.430Z,4.42
2019-04-22T12:43:22.110Z,5.28
2019-04-22T12:45:54.340Z,4.65
2019-04-22T12:48:27.461Z,5.45
2019-04-22T12:51:00.832Z,6.22
2019-04-22T12:53:33.970Z,9.95
2019-04-22T12:56:07.029Z,16.97
2019-04-22T12:58:39.354Z,4.50
2019-04-22T13:01:12.570Z,5.35
2019-04-22T13:03:46.208Z,4.00
2019-04-22T13:06:19.490Z,5.95
2019-04-22T13:08:52.472Z,4.30
2019-04-22T13:11:32.045Z,4.78
2019-04-22T13:14:12.695Z,3.70
2019-04-22T13:16:54.848Z,5.50
2019-04-22T13:19:28.402Z,5.10
2019-04-22T13:22:12.547Z,5.03
2019-04-22T13:24:47.911Z,5.03
2019-04-22T13:27:21.207Z,5.40
2019-04-22T13:29:55.177Z,3.80
2019-04-22T13:32:28.849Z,4.87
2019-04-22T13:35:02.141Z,7.05
2019-04-22T13:37:35.073Z,9.83
2019-04-22T13:40:07.989Z,6.83
2019-04-22T13:42:40.746Z,6.67
2019-04-22T13:45:13.845Z,6.62
2019-04-22T13:48:02.963Z,5.67
2019-04-22T13:50:59.462Z,5.37
2019-04-22T13:53:42.794Z,3.90
2019-04-22T13:58:14.665Z,4.50
2019-04-22T14:00:38.475Z,4.53
2019-04-22T14:03:39.869Z,4.62
2019-04-22T14:06:13.206Z,4.45
2019-04-22T14:08:45.250Z,6.80
2019-04-22T14:11:28.629Z,7.25
2019-04-22T14:13:52.159Z,4.15
2019-04-22T14:16:24.825Z,4.60
2019-04-22T14:18:58.141Z,4.17
2019-04-22T14:21:30.684Z,7.12
2019-04-22T14:24:02.803Z,4.25
2019-04-22T14:26:52.467Z,4.33
2019-04-22T14:29:09.427Z,4.58
2019-04-22T14:31:44.678Z,4.80
2019-04-22T14:34:18.805Z,4.55
2019-04-22T14:36:55.456Z,5.30
2019-04-22T14:39:33.366Z,4.35
2019-04-22T14:42:28.308Z,5.62
2019-04-22T14:47:56.047Z,6.75
2019-04-22T14:50:21.814Z,4.85
2019-04-22T14:52:59.422Z,4.55
2019-04-22T14:55:16.921Z,7.47
2019-04-22T14:57:43.851Z,4.40
2019-04-22T15:00:18.046Z,5.47
2019-04-22T15:02:51.891Z,10.68
2019-04-22T15:05:26.060Z,4.80
2019-04-22T15:07:59.137Z,5.53
2019-04-22T15:10:31.842Z,4.28
2019-04-22T15:13:05.359Z,5.90
2019-04-22T15:15:53.388Z,6.53
2019-04-22T15:19:00.104Z,4.25
2019-04-22T15:21:32.838Z,4.10
2019-04-22T15:24:25.348Z,3.58
2019-04-22T15:27:00.727Z,4.40
2019-04-22T15:29:33.802Z,5.00
2019-04-22T15:32:07.555Z,5.55
2019-04-22T15:34:41.554Z,4.40
2019-04-22T15:37:14.377Z,4.30
2019-04-22T15:39:47.783Z,6.15
2019-04-22T15:42:27.739Z,4.17
2019-04-22T15:44:55.848Z,4.20
2019-04-22T15:47:29.255Z,4.78
2019-04-22T15:50:01.528Z,5.67
2019-04-22T15:52:41.691Z,7.00
2019-04-22T15:55:10.898Z,4.33
2019-04-22T15:57:43.975Z,3.90
2019-04-22T16:00:29.384Z,4.12
2019-04-22T16:02:50.060Z,6.35
2019-04-22T16:05:22.634Z,7.33
2019-04-22T16:07:54.996Z,4.00
2019-04-22T16:10:28.064Z,4.03
2019-04-22T16:13:07.361Z,5.58
2019-04-22T16:15:36.327Z,4.15
2019-04-22T16:18:09.423Z,5.15
2019-04-22T16:20:43.790Z,3.37
2019-04-22T16:23:29.888Z,7.35
2019-04-22T16:26:40.238Z,5.62
2019-04-22T16:29:13.758Z,3.02
2019-04-22T16:31:47.462Z,3.45
2019-04-22T16:34:19.742Z,2.90
2019-04-22T16:36:52.735Z,4.47
2019-04-22T16:39:24.863Z,2.90
2019-04-22T16:41:57.190Z,4.15
2019-04-22T16:44:30.372Z,5.28
2019-04-22T16:47:03.596Z,2.83
2019-04-22T16:49:37.237Z,4.53
2019-04-22T16:52:10.046Z,3.33
2019-04-22T16:54:42.219Z,7.20
2019-04-22T16:57:15.789Z,9.50
2019-04-22T16:59:48.996Z,4.78
2019-04-22T17:02:41.288Z,3.83
2019-04-22T17:05:29.572Z,2.87
2019-04-22T17:08:04.077Z,2.95
2019-04-22T17:10:37.708Z,3.50
2019-04-22T17:13:17.467Z,3.12
2019-04-22T17:15:45.246Z,4.58
2019-04-22T17:18:17.361Z,3.77
2019-04-22T17:20:50.701Z,3.77
2019-04-22T17:23:23.261Z,2.98
2019-04-22T17:25:56.613Z,2.95
2019-04-22T17:28:28.758Z,7.25
2019-04-22T17:31:01.890Z,3.25
2019-04-22T17:33:35.198Z,3.30
2019-04-22T17:36:09.316Z,3.70
2019-04-22T17:38:51.974Z,5.53
2019-04-22T17:41:30.177Z,2.80
2019-04-22T17:44:21.918Z,3.72
2019-04-22T17:46:50.908Z,4.10
2019-04-22T17:49:46.046Z,3.47
2019-04-22T17:52:21.524Z,3.55
2019-04-22T17:54:51.637Z,4.62
2019-04-22T17:57:34.453Z,6.00
2019-04-22T18:00:14.419Z,2.52
2019-04-22T18:02:58.030Z,3.80
2019-04-22T18:05:24.104Z,2.50
2019-04-22T18:08:17.716Z,6.00
2019-04-22T18:11:23.871Z,3.37
2019-04-22T18:14:16.451Z,4.40
2019-04-22T18:16:47.669Z,2.75
2019-04-22T18:19:27.745Z,4.20
2019-04-22T18:22:12.341Z,4.85
2019-04-22T18:24:53.031Z,3.58
2019-04-22T18:28:15.176Z,3.70
2019-04-22T18:30:47.778Z,4.42
2019-04-22T18:33:37.074Z,3.60
2019-04-22T18:36:29.218Z,7.10
2019-04-22T18:39:42.351Z,4.37
2019-04-22T18:42:26.972Z,4.35
2019-04-22T18:46:12.390Z,5.80
2019-04-22T18:49:03.329Z,3.40
2019-04-22T18:51:51.781Z,10.00
2019-04-22T18:55:03.629Z,3.50
2019-04-22T18:57:50.354Z,5.62
2019-04-22T19:00:48.870Z,3.67
2019-04-22T19:03:51.086Z,5.30
2019-04-22T19:06:46.245Z,5.87
2019-04-22T19:10:07.460Z,2.87
2019-04-22T19:13:44.641Z,3.77
2019-04-22T19:16:27.868Z,9.78
2019-04-22T19:22:58.928Z,3.25
2019-04-22T19:25:47.116Z,2.67
2019-04-22T19:28:49.766Z,3.30
2019-04-22T19:31:52.380Z,3.67
2019-04-22T19:34:38.201Z,3.17
2019-04-22T19:37:25.667Z,3.50
2019-04-22T19:40:58.247Z,3.30
2019-04-22T19:43:58.108Z,4.35
2019-04-22T19:46:34.563Z,4.53
2019-04-22T19:49:24.600Z,4.00
2019-04-22T19:52:02.556Z,6.62
2019-04-22T19:54:27.646Z,4.70
2019-04-22T19:56:51.004Z,4.17
2019-04-22T19:59:32.811Z,3.62
2019-04-22T20:02:29.150Z,3.60
2019-04-22T20:05:14.639Z,3.70
2019-04-22T20:07:48.818Z,5.62
2019-04-22T20:10:20.756Z,4.72
2019-04-22T20:12:51.534Z,5.25
2019-04-22T20:15:24.454Z,4.45
2019-04-22T20:20:42.261Z,4.53
2019-04-22T20:23:08.387Z,5.55
2019-04-22T20:25:40.710Z,4.58
2019-04-22T20:28:21.969Z,4.92
2019-04-22T20:30:50.571Z,4.35
2019-04-22T20:33:29.198Z,4.58
2019-04-22T20:35:58.345Z,4.78
2019-04-22T20:38:31.101Z,6.85
2019-04-22T20:41:02.778Z,5.12
2019-04-22T20:46:15.112Z,7.75
2019-04-22T20:48:48.425Z,4.33
2019-04-22T20:51:29.657Z,5.17
2019-04-22T20:53:56.610Z,6.17
2019-04-22T20:56:25.621Z,13.40
2019-04-22T20:59:02.073Z,5.60
2019-04-22T21:01:36.874Z,6.33
2019-04-22T21:03:58.697Z,5.70
2019-04-22T21:06:42.786Z,5.20
2019-04-22T21:09:18.330Z,4.25
2019-04-22T21:11:48.346Z,4.33
2019-04-22T21:14:27.441Z,6.25
2019-04-22T21:17:02.170Z,5.62
2019-04-22T21:19:40.313Z,6.60
2019-04-22T21:22:16.010Z,4.50
2019-04-22T21:24:43.762Z,4.03
2019-04-22T21:27:46.276Z,11.95
2019-04-22T21:30:57.170Z,5.03
2019-04-22T21:34:05.252Z,3.60
2019-04-22T21:37:02.640Z,5.20
2019-04-22T21:39:52.872Z,5.90
2019-04-22T21:42:58.311Z,7.28
2019-04-22T21:46:15.104Z,5.05
2019-04-22T21:49:16.111Z,3.90
2019-04-22T21:52:07.979Z,3.60
2019-04-22T21:55:38.722Z,5.33
2019-04-22T21:58:54.565Z,4.80
2019-04-22T22:01:56.884Z,5.40
2019-04-22T22:05:11.182Z,4.10
2019-04-22T22:08:21.578Z,4.35
2019-04-22T22:11:11.709Z,5.20
2019-04-22T22:14:04.228Z,3.65
2019-04-22T22:16:57.464Z,4.45
2019-04-22T22:20:03.430Z,4.53
2019-04-22T22:23:22.250Z,3.70
2019-04-22T22:29:32.158Z,3.83
2019-04-22T22:32:35.239Z,4.60
2019-04-22T22:35:36.034Z,5.00
2019-04-22T22:38:46.966Z,5.72
2019-04-22T22:41:55.203Z,4.85
2019-04-22T22:44:43.254Z,4.10
2019-04-22T22:48:25.324Z,4.20
2019-04-22T22:51:09.921Z,4.83
2019-04-22T22:54:34.201Z,6.20
2019-04-22T22:57:44.606Z,9.33
2019-04-22T23:00:32.252Z,4.00
2019-04-22T23:03:46.131Z,4.95
2019-04-22T23:06:22.176Z,5.22
2019-04-22T23:08:53.960Z,4.10
2019-04-22T23:12:10.325Z,4.17
2019-04-22T23:14:54.618Z,4.40
2019-04-22T23:17:31.808Z,6.80
2019-04-22T23:20:41.865Z,4.45
2019-04-22T23:24:14.521Z,8.88
2019-04-22T23:26:53.997Z,5.90
2019-04-22T23:30:02.359Z,6.25
2019-04-22T23:33:09.863Z,4.90
2019-04-22T23:36:00.297Z,6.20
2019-04-22T23:38:59.246Z,5.40
2019-04-22T23:41:51.189Z,7.12
2019-04-22T23:44:31.935Z,10.03
2019-04-22T23:47:08.614Z,11.30
2019-04-22T23:49:56.552Z,7.10
2019-04-22T23:52:46.859Z,5.00
2019-04-22T23:55:26.076Z,4.92
2019-04-22T23:58:09.579Z,4.80
